sensor_id;sensor_type;location;lat;lon;timestamp;temperature;humidity
34574;DHT22;20809;49.594;8.734;2023-03-05T00:02:11;3.90;99.90
34574;DHT22;20809;49.594;8.734;2023-03-05T00:05:12;3.90;99.90
34574;DHT22;20809;49.594;8.734;2023-03-05T00:08:13;3.90;99.90
34574;DHT22;20809;49.594;8.734;2023-03-05T00:11:14;3.90;99.90
34574;DHT22;20809;49.594;8.734;2023-03-05T00:14:16;3.90;99.90
34574;DHT22;20809;49.594;8.734;2023-03-05T00:17:16;3.90;99.90
34574;DHT22;20809;49.594;8.734;2023-03-05T00:20:17;3.90;99.90
34574;DHT22;20809;49.594;8.734;2023-03-05T00:23:18;3.90;99.90
34574;DHT22;20809;49.594;8.734;2023-03-05T00:26:21;3.90;99.90
34574;DHT22;20809;49.594;8.734;2023-03-05T00:29:22;3.90;99.90
34574;DHT22;20809;49.594;8.734;2023-03-05T00:32:23;3.90;99.90
34574;DHT22;20809;49.594;8.734;2023-03-05T00:35:24;3.90;99.90
34574;DHT22;20809;49.594;8.734;2023-03-05T00:38:25;3.90;99.90
34574;DHT22;20809;49.594;8.734;2023-03-05T00:41:26;3.90;99.90
34574;DHT22;20809;49.594;8.734;2023-03-05T00:44:27;3.90;99.90
34574;DHT22;20809;49.594;8.734;2023-03-05T00:47:28;3.90;99.90
34574;DHT22;20809;49.594;8.734;2023-03-05T00:50:29;3.80;99.90
34574;DHT22;20809;49.594;8.734;2023-03-05T00:53:29;3.90;99.90
34574;DHT22;20809;49.594;8.734;2023-03-05T00:56:30;3.80;99.90
34574;DHT22;20809;49.594;8.734;2023-03-05T00:59:31;3.80;99.90
34574;DHT22;20809;49.594;8.734;2023-03-05T01:02:32;3.70;99.90
34574;DHT22;20809;49.594;8.734;2023-03-05T01:05:33;3.70;99.90
34574;DHT22;20809;49.594;8.734;2023-03-05T01:08:35;3.70;99.90
34574;DHT22;20809;49.594;8.734;2023-03-05T01:11:35;3.70;99.90
34574;DHT22;20809;49.594;8.734;2023-03-05T01:14:36;3.80;99.90
34574;DHT22;20809;49.594;8.734;2023-03-05T01:17:37;3.80;99.90
34574;DHT22;20809;49.594;8.734;2023-03-05T01:20:38;3.80;99.90
34574;DHT22;20809;49.594;8.734;2023-03-05T01:23:39;3.80;99.90
34574;DHT22;20809;49.594;8.734;2023-03-05T01:26:40;3.80;99.90
34574;DHT22;20809;49.594;8.734;2023-03-05T01:29:40;3.80;99.90
34574;DHT22;20809;49.594;8.734;2023-03-05T01:32:42;3.90;99.90
34574;DHT22;20809;49.594;8.734;2023-03-05T01:35:48;3.90;99.90
34574;DHT22;20809;49.594;8.734;2023-03-05T01:38:49;3.90;99.90
34574;DHT22;20809;49.594;8.734;2023-03-05T01:41:50;3.90;99.90
34574;DHT22;20809;49.594;8.734;2023-03-05T01:48:01;3.80;99.90
34574;DHT22;20809;49.594;8.734;2023-03-05T01:51:02;3.80;99.90
34574;DHT22;20809;49.594;8.734;2023-03-05T01:54:05;3.80;99.90
34574;DHT22;20809;49.594;8.734;2023-03-05T01:59:10;3.80;99.90
34574;DHT22;20809;49.594;8.734;2023-03-05T02:02:12;3.80;99.90
34574;DHT22;20809;49.594;8.734;2023-03-05T02:05:27;3.80;99.90
34574;DHT22;20809;49.594;8.734;2023-03-05T02:08:28;3.80;99.90
34574;DHT22;20809;49.594;8.734;2023-03-05T02:11:29;3.80;99.90
34574;DHT22;20809;49.594;8.734;2023-03-05T02:14:31;3.80;99.90
34574;DHT22;20809;49.594;8.734;2023-03-05T02:17:33;3.80;99.90
34574;DHT22;20809;49.594;8.734;2023-03-05T02:23:56;3.80;99.90
34574;DHT22;20809;49.594;8.734;2023-03-05T02:26:57;3.70;99.90
34574;DHT22;20809;49.594;8.734;2023-03-05T02:29:59;3.70;99.90
34574;DHT22;20809;49.594;8.734;2023-03-05T02:33:01;3.70;99.90
34574;DHT22;20809;49.594;8.734;2023-03-05T02:36:03;3.70;99.90
34574;DHT22;20809;49.594;8.734;2023-03-05T02:39:04;3.70;99.90
34574;DHT22;20809;49.594;8.734;2023-03-05T02:42:08;3.70;99.90
34574;DHT22;20809;49.594;8.734;2023-03-05T02:45:09;3.70;99.90
34574;DHT22;20809;49.594;8.734;2023-03-05T02:48:11;3.60;99.90
34574;DHT22;20809;49.594;8.734;2023-03-05T02:51:12;3.60;99.90
34574;DHT22;20809;49.594;8.734;2023-03-05T02:54:13;3.60;99.90
34574;DHT22;20809;49.594;8.734;2023-03-05T02:57:15;3.60;99.90
34574;DHT22;20809;49.594;8.734;2023-03-05T03:00:16;3.50;99.90
34574;DHT22;20809;49.594;8.734;2023-03-05T03:03:17;3.50;99.90
34574;DHT22;20809;49.594;8.734;2023-03-05T03:06:18;3.50;99.90
34574;DHT22;20809;49.594;8.734;2023-03-05T03:09:20;3.50;99.90
34574;DHT22;20809;49.594;8.734;2023-03-05T03:12:21;3.40;99.90
34574;DHT22;20809;49.594;8.734;2023-03-05T03:15:22;3.40;99.90
34574;DHT22;20809;49.594;8.734;2023-03-05T03:18:23;3.40;99.90
34574;DHT22;20809;49.594;8.734;2023-03-05T03:21:25;3.40;99.90
34574;DHT22;20809;49.594;8.734;2023-03-05T03:24:29;3.40;99.90
34574;DHT22;20809;49.594;8.734;2023-03-05T03:27:30;3.40;99.90
34574;DHT22;20809;49.594;8.734;2023-03-05T03:30:32;3.30;99.90
34574;DHT22;20809;49.594;8.734;2023-03-05T03:33:34;3.40;99.90
34574;DHT22;20809;49.594;8.734;2023-03-05T03:36:36;3.40;99.90
34574;DHT22;20809;49.594;8.734;2023-03-05T03:39:37;3.40;99.90
34574;DHT22;20809;49.594;8.734;2023-03-05T03:42:39;3.40;99.90
34574;DHT22;20809;49.594;8.734;2023-03-05T03:45:44;3.40;99.90
34574;DHT22;20809;49.594;8.734;2023-03-05T03:48:49;3.40;99.90
34574;DHT22;20809;49.594;8.734;2023-03-05T03:51:54;3.40;99.90
34574;DHT22;20809;49.594;8.734;2023-03-05T03:54:58;3.40;99.90
34574;DHT22;20809;49.594;8.734;2023-03-05T03:58:01;3.40;99.90
34574;DHT22;20809;49.594;8.734;2023-03-05T04:01:03;3.30;99.90
34574;DHT22;20809;49.594;8.734;2023-03-05T04:04:06;3.30;99.90
34574;DHT22;20809;49.594;8.734;2023-03-05T04:07:11;3.30;99.90
34574;DHT22;20809;49.594;8.734;2023-03-05T04:10:12;3.30;99.90
34574;DHT22;20809;49.594;8.734;2023-03-05T04:13:13;3.30;99.90
34574;DHT22;20809;49.594;8.734;2023-03-05T04:16:15;3.30;99.90
34574;DHT22;20809;49.594;8.734;2023-03-05T04:19:17;3.20;99.90
34574;DHT22;20809;49.594;8.734;2023-03-05T04:22:18;3.30;99.90
34574;DHT22;20809;49.594;8.734;2023-03-05T04:25:22;3.30;99.90
34574;DHT22;20809;49.594;8.734;2023-03-05T04:28:23;3.30;99.90
34574;DHT22;20809;49.594;8.734;2023-03-05T04:31:24;3.20;99.90
34574;DHT22;20809;49.594;8.734;2023-03-05T04:34:26;3.30;99.90
34574;DHT22;20809;49.594;8.734;2023-03-05T04:37:30;3.30;99.90
34574;DHT22;20809;49.594;8.734;2023-03-05T04:40:32;3.20;99.90
34574;DHT22;20809;49.594;8.734;2023-03-05T04:43:33;3.20;99.90
34574;DHT22;20809;49.594;8.734;2023-03-05T04:46:34;3.20;99.90
34574;DHT22;20809;49.594;8.734;2023-03-05T04:49:36;3.10;99.90
34574;DHT22;20809;49.594;8.734;2023-03-05T04:52:42;3.10;99.90
34574;DHT22;20809;49.594;8.734;2023-03-05T04:55:44;3.10;99.90
34574;DHT22;20809;49.594;8.734;2023-03-05T04:58:45;3.10;99.90
34574;DHT22;20809;49.594;8.734;2023-03-05T05:01:47;3.10;99.90
34574;DHT22;20809;49.594;8.734;2023-03-05T05:04:52;3.10;99.90
34574;DHT22;20809;49.594;8.734;2023-03-05T05:07:55;3.10;99.90
34574;DHT22;20809;49.594;8.734;2023-03-05T05:11:05;3.10;99.90
34574;DHT22;20809;49.594;8.734;2023-03-05T05:14:07;3.10;99.90
34574;DHT22;20809;49.594;8.734;2023-03-05T05:17:08;3.10;99.90
34574;DHT22;20809;49.594;8.734;2023-03-05T05:20:11;3.10;99.90
34574;DHT22;20809;49.594;8.734;2023-03-05T05:23:13;3.10;99.90
34574;DHT22;20809;49.594;8.734;2023-03-05T05:26:14;3.10;99.90
34574;DHT22;20809;49.594;8.734;2023-03-05T05:29:15;3.10;99.90
34574;DHT22;20809;49.594;8.734;2023-03-05T05:32:16;3.10;99.90
34574;DHT22;20809;49.594;8.734;2023-03-05T05:35:17;3.10;99.90
34574;DHT22;20809;49.594;8.734;2023-03-05T05:38:18;3.10;99.90
34574;DHT22;20809;49.594;8.734;2023-03-05T05:41:20;3.10;99.90
34574;DHT22;20809;49.594;8.734;2023-03-05T05:44:22;3.10;99.90
34574;DHT22;20809;49.594;8.734;2023-03-05T05:47:23;3.10;99.90
34574;DHT22;20809;49.594;8.734;2023-03-05T05:50:25;3.10;99.90
34574;DHT22;20809;49.594;8.734;2023-03-05T05:53:27;3.10;99.90
34574;DHT22;20809;49.594;8.734;2023-03-05T05:56:29;3.20;99.90
34574;DHT22;20809;49.594;8.734;2023-03-05T05:59:31;3.10;99.90
34574;DHT22;20809;49.594;8.734;2023-03-05T06:02:33;3.10;99.90
34574;DHT22;20809;49.594;8.734;2023-03-05T06:05:39;3.20;99.90
34574;DHT22;20809;49.594;8.734;2023-03-05T06:08:41;3.20;99.90
34574;DHT22;20809;49.594;8.734;2023-03-05T06:11:45;3.20;99.90
34574;DHT22;20809;49.594;8.734;2023-03-05T06:14:48;3.20;99.90
34574;DHT22;20809;49.594;8.734;2023-03-05T06:17:50;3.20;99.90
34574;DHT22;20809;49.594;8.734;2023-03-05T06:20:57;3.20;99.90
34574;DHT22;20809;49.594;8.734;2023-03-05T06:23:59;3.20;99.90
34574;DHT22;20809;49.594;8.734;2023-03-05T06:27:00;3.20;99.90
34574;DHT22;20809;49.594;8.734;2023-03-05T06:30:02;3.30;99.90
34574;DHT22;20809;49.594;8.734;2023-03-05T06:33:04;3.30;99.90
34574;DHT22;20809;49.594;8.734;2023-03-05T06:36:09;3.30;99.90
34574;DHT22;20809;49.594;8.734;2023-03-05T06:39:10;3.30;99.90
34574;DHT22;20809;49.594;8.734;2023-03-05T06:42:12;3.30;99.90
34574;DHT22;20809;49.594;8.734;2023-03-05T06:45:14;3.30;99.90
34574;DHT22;20809;49.594;8.734;2023-03-05T06:48:16;3.40;99.90
34574;DHT22;20809;49.594;8.734;2023-03-05T06:51:28;3.40;99.90
34574;DHT22;20809;49.594;8.734;2023-03-05T06:54:31;3.40;99.90
34574;DHT22;20809;49.594;8.734;2023-03-05T06:57:33;3.40;99.90
34574;DHT22;20809;49.594;8.734;2023-03-05T07:00:36;3.50;99.90
34574;DHT22;20809;49.594;8.734;2023-03-05T07:03:39;3.60;99.90
34574;DHT22;20809;49.594;8.734;2023-03-05T07:06:43;3.60;99.90
34574;DHT22;20809;49.594;8.734;2023-03-05T07:09:46;3.70;99.90
34574;DHT22;20809;49.594;8.734;2023-03-05T07:12:51;3.70;99.90
34574;DHT22;20809;49.594;8.734;2023-03-05T07:15:53;3.70;99.90
34574;DHT22;20809;49.594;8.734;2023-03-05T07:18:58;3.70;99.90
34574;DHT22;20809;49.594;8.734;2023-03-05T07:22:00;3.80;99.90
34574;DHT22;20809;49.594;8.734;2023-03-05T07:25:03;3.80;99.90
34574;DHT22;20809;49.594;8.734;2023-03-05T07:28:05;3.80;99.90
34574;DHT22;20809;49.594;8.734;2023-03-05T07:31:11;3.90;99.90
34574;DHT22;20809;49.594;8.734;2023-03-05T07:34:15;3.90;99.90
34574;DHT22;20809;49.594;8.734;2023-03-05T07:37:16;3.90;99.90
34574;DHT22;20809;49.594;8.734;2023-03-05T07:40:18;4.00;99.90
34574;DHT22;20809;49.594;8.734;2023-03-05T07:43:21;4.00;99.90
34574;DHT22;20809;49.594;8.734;2023-03-05T07:46:26;4.10;99.90
34574;DHT22;20809;49.594;8.734;2023-03-05T07:49:27;4.10;99.90
34574;DHT22;20809;49.594;8.734;2023-03-05T07:52:29;4.00;99.90
34574;DHT22;20809;49.594;8.734;2023-03-05T07:55:34;4.00;99.90
34574;DHT22;20809;49.594;8.734;2023-03-05T07:58:38;4.00;99.90
34574;DHT22;20809;49.594;8.734;2023-03-05T08:01:40;4.20;99.90
34574;DHT22;20809;49.594;8.734;2023-03-05T08:04:43;4.30;99.90
34574;DHT22;20809;49.594;8.734;2023-03-05T08:07:45;4.30;99.90
34574;DHT22;20809;49.594;8.734;2023-03-05T08:10:50;4.50;99.90
34574;DHT22;20809;49.594;8.734;2023-03-05T08:13:52;4.70;99.90
34574;DHT22;20809;49.594;8.734;2023-03-05T08:16:54;4.70;99.90
34574;DHT22;20809;49.594;8.734;2023-03-05T08:19:56;4.90;99.90
34574;DHT22;20809;49.594;8.734;2023-03-05T08:22:59;4.90;99.90
34574;DHT22;20809;49.594;8.734;2023-03-05T08:26:01;5.10;99.90
34574;DHT22;20809;49.594;8.734;2023-03-05T08:29:11;5.30;99.90
34574;DHT22;20809;49.594;8.734;2023-03-05T08:32:13;5.40;99.90
34574;DHT22;20809;49.594;8.734;2023-03-05T08:35:15;5.60;99.90
34574;DHT22;20809;49.594;8.734;2023-03-05T08:38:16;5.70;99.90
34574;DHT22;20809;49.594;8.734;2023-03-05T08:41:18;5.80;99.90
34574;DHT22;20809;49.594;8.734;2023-03-05T08:44:20;5.80;99.90
34574;DHT22;20809;49.594;8.734;2023-03-05T08:47:21;6.00;99.90
34574;DHT22;20809;49.594;8.734;2023-03-05T08:50:25;6.20;99.90
34574;DHT22;20809;49.594;8.734;2023-03-05T08:53:26;6.50;99.90
34574;DHT22;20809;49.594;8.734;2023-03-05T08:56:27;6.70;99.90
34574;DHT22;20809;49.594;8.734;2023-03-05T08:59:31;7.00;99.90
34574;DHT22;20809;49.594;8.734;2023-03-05T09:02:32;7.10;99.90
34574;DHT22;20809;49.594;8.734;2023-03-05T09:05:34;7.20;99.90
34574;DHT22;20809;49.594;8.734;2023-03-05T09:08:35;7.10;99.90
34574;DHT22;20809;49.594;8.734;2023-03-05T09:11:40;7.00;99.90
34574;DHT22;20809;49.594;8.734;2023-03-05T09:14:46;7.10;99.90
34574;DHT22;20809;49.594;8.734;2023-03-05T09:17:49;7.30;99.90
34574;DHT22;20809;49.594;8.734;2023-03-05T09:20:51;7.30;99.90
34574;DHT22;20809;49.594;8.734;2023-03-05T09:23:52;7.20;99.90
34574;DHT22;20809;49.594;8.734;2023-03-05T09:26:59;6.70;99.90
34574;DHT22;20809;49.594;8.734;2023-03-05T09:30:01;6.50;99.90
34574;DHT22;20809;49.594;8.734;2023-03-05T09:33:03;6.40;99.90
34574;DHT22;20809;49.594;8.734;2023-03-05T09:36:36;6.10;99.90
34574;DHT22;20809;49.594;8.734;2023-03-05T09:39:37;6.10;99.90
34574;DHT22;20809;49.594;8.734;2023-03-05T09:43:02;5.80;99.90
34574;DHT22;20809;49.594;8.734;2023-03-05T09:46:16;5.80;99.90
34574;DHT22;20809;49.594;8.734;2023-03-05T09:49:49;5.90;99.90
34574;DHT22;20809;49.594;8.734;2023-03-05T09:53:00;6.00;99.90
34574;DHT22;20809;49.594;8.734;2023-03-05T09:56:25;6.50;99.90
34574;DHT22;20809;49.594;8.734;2023-03-05T10:02:51;7.20;99.90
34574;DHT22;20809;49.594;8.734;2023-03-05T10:12:45;6.90;99.90
34574;DHT22;20809;49.594;8.734;2023-03-05T10:15:55;7.50;99.90
34574;DHT22;20809;49.594;8.734;2023-03-05T10:22:22;8.40;99.90
34574;DHT22;20809;49.594;8.734;2023-03-05T10:25:49;8.60;99.90
34574;DHT22;20809;49.594;8.734;2023-03-05T10:42:24;8.80;99.90
34574;DHT22;20809;49.594;8.734;2023-03-05T10:45:35;8.80;99.90
34574;DHT22;20809;49.594;8.734;2023-03-05T10:48:54;9.00;99.90
34574;DHT22;20809;49.594;8.734;2023-03-05T10:52:07;9.30;99.90
34574;DHT22;20809;49.594;8.734;2023-03-05T10:55:19;9.60;99.90
34574;DHT22;20809;49.594;8.734;2023-03-05T10:58:23;9.80;99.90
34574;DHT22;20809;49.594;8.734;2023-03-05T11:01:29;9.80;99.90
34574;DHT22;20809;49.594;8.734;2023-03-05T11:04:34;9.50;99.90
34574;DHT22;20809;49.594;8.734;2023-03-05T11:07:37;9.10;99.90
34574;DHT22;20809;49.594;8.734;2023-03-05T11:10:40;9.20;99.90
34574;DHT22;20809;49.594;8.734;2023-03-05T11:13:55;9.40;99.90
34574;DHT22;20809;49.594;8.734;2023-03-05T11:17:02;9.90;99.90
34574;DHT22;20809;49.594;8.734;2023-03-05T11:23:32;10.60;99.90
34574;DHT22;20809;49.594;8.734;2023-03-05T11:26:35;10.50;99.90
34574;DHT22;20809;49.594;8.734;2023-03-05T11:29:47;10.40;99.90
34574;DHT22;20809;49.594;8.734;2023-03-05T11:33:05;10.20;99.90
34574;DHT22;20809;49.594;8.734;2023-03-05T11:37:16;10.30;99.90
34574;DHT22;20809;49.594;8.734;2023-03-05T11:40:29;10.40;99.90
34574;DHT22;20809;49.594;8.734;2023-03-05T11:43:37;10.20;99.90
34574;DHT22;20809;49.594;8.734;2023-03-05T11:46:47;9.90;99.90
34574;DHT22;20809;49.594;8.734;2023-03-05T11:53:28;10.00;99.90
34574;DHT22;20809;49.594;8.734;2023-03-05T11:56:37;9.80;99.90
34574;DHT22;20809;49.594;8.734;2023-03-05T11:59:39;9.50;99.90
34574;DHT22;20809;49.594;8.734;2023-03-05T12:02:45;9.20;99.90
34574;DHT22;20809;49.594;8.734;2023-03-05T12:09:46;9.20;99.90
34574;DHT22;20809;49.594;8.734;2023-03-05T12:12:58;9.00;99.90
34574;DHT22;20809;49.594;8.734;2023-03-05T12:16:33;8.60;99.90
34574;DHT22;20809;49.594;8.734;2023-03-05T12:19:56;8.50;99.90
34574;DHT22;20809;49.594;8.734;2023-03-05T12:22:59;8.30;99.90
34574;DHT22;20809;49.594;8.734;2023-03-05T12:26:00;7.90;99.90
34574;DHT22;20809;49.594;8.734;2023-03-05T12:29:02;7.80;99.90
34574;DHT22;20809;49.594;8.734;2023-03-05T12:32:51;7.70;99.90
34574;DHT22;20809;49.594;8.734;2023-03-05T12:35:38;7.70;99.90
34574;DHT22;20809;49.594;8.734;2023-03-05T12:38:41;7.80;99.90
34574;DHT22;20809;49.594;8.734;2023-03-05T12:41:43;7.70;99.90
34574;DHT22;20809;49.594;8.734;2023-03-05T12:44:45;7.70;99.90
34574;DHT22;20809;49.594;8.734;2023-03-05T12:51:30;7.30;99.90
34574;DHT22;20809;49.594;8.734;2023-03-05T12:54:34;7.10;99.90
34574;DHT22;20809;49.594;8.734;2023-03-05T12:57:36;6.90;99.90
34574;DHT22;20809;49.594;8.734;2023-03-05T13:00:49;6.60;99.90
34574;DHT22;20809;49.594;8.734;2023-03-05T13:03:59;6.50;99.90
34574;DHT22;20809;49.594;8.734;2023-03-05T13:07:05;6.50;99.90
34574;DHT22;20809;49.594;8.734;2023-03-05T13:10:24;6.60;99.90
34574;DHT22;20809;49.594;8.734;2023-03-05T13:13:30;6.60;99.90
34574;DHT22;20809;49.594;8.734;2023-03-05T13:16:38;6.80;99.90
34574;DHT22;20809;49.594;8.734;2023-03-05T13:19:41;6.90;99.90
34574;DHT22;20809;49.594;8.734;2023-03-05T13:22:43;7.00;99.90
34574;DHT22;20809;49.594;8.734;2023-03-05T13:29:18;7.10;99.90
34574;DHT22;20809;49.594;8.734;2023-03-05T13:32:30;7.20;99.90
34574;DHT22;20809;49.594;8.734;2023-03-05T13:35:33;7.20;99.90
34574;DHT22;20809;49.594;8.734;2023-03-05T13:38:42;7.00;99.90
34574;DHT22;20809;49.594;8.734;2023-03-05T13:42:06;7.10;99.90
34574;DHT22;20809;49.594;8.734;2023-03-05T13:45:28;7.20;99.90
34574;DHT22;20809;49.594;8.734;2023-03-05T13:48:32;7.20;99.90
34574;DHT22;20809;49.594;8.734;2023-03-05T13:51:45;7.20;99.90
34574;DHT22;20809;49.594;8.734;2023-03-05T13:54:50;7.20;99.90
34574;DHT22;20809;49.594;8.734;2023-03-05T13:57:54;7.10;99.90
34574;DHT22;20809;49.594;8.734;2023-03-05T14:01:27;7.00;99.90
34574;DHT22;20809;49.594;8.734;2023-03-05T14:04:33;6.90;99.90
34574;DHT22;20809;49.594;8.734;2023-03-05T14:07:38;6.90;99.90
34574;DHT22;20809;49.594;8.734;2023-03-05T14:10:41;6.90;99.90
34574;DHT22;20809;49.594;8.734;2023-03-05T14:13:43;7.00;99.90
34574;DHT22;20809;49.594;8.734;2023-03-05T14:16:47;6.90;99.90
34574;DHT22;20809;49.594;8.734;2023-03-05T14:19:50;6.90;99.90
34574;DHT22;20809;49.594;8.734;2023-03-05T14:22:58;6.90;99.90
34574;DHT22;20809;49.594;8.734;2023-03-05T14:29:27;6.80;99.90
34574;DHT22;20809;49.594;8.734;2023-03-05T14:32:32;6.60;99.90
34574;DHT22;20809;49.594;8.734;2023-03-05T14:35:35;6.50;99.90
34574;DHT22;20809;49.594;8.734;2023-03-05T14:38:43;6.40;99.90
34574;DHT22;20809;49.594;8.734;2023-03-05T14:41:46;6.40;99.90
34574;DHT22;20809;49.594;8.734;2023-03-05T14:44:48;6.40;99.90
34574;DHT22;20809;49.594;8.734;2023-03-05T14:47:56;6.50;99.90
34574;DHT22;20809;49.594;8.734;2023-03-05T14:50:59;6.50;99.90
34574;DHT22;20809;49.594;8.734;2023-03-05T14:54:01;6.50;99.90
34574;DHT22;20809;49.594;8.734;2023-03-05T14:57:04;6.50;99.90
34574;DHT22;20809;49.594;8.734;2023-03-05T15:00:19;6.40;99.90
34574;DHT22;20809;49.594;8.734;2023-03-05T15:03:23;6.50;99.90
34574;DHT22;20809;49.594;8.734;2023-03-05T15:06:36;6.50;99.90
34574;DHT22;20809;49.594;8.734;2023-03-05T15:09:40;6.50;99.90
34574;DHT22;20809;49.594;8.734;2023-03-05T15:12:44;6.50;99.90
34574;DHT22;20809;49.594;8.734;2023-03-05T15:15:49;6.40;99.90
34574;DHT22;20809;49.594;8.734;2023-03-05T15:18:52;6.20;99.90
34574;DHT22;20809;49.594;8.734;2023-03-05T15:21:54;6.10;99.90
34574;DHT22;20809;49.594;8.734;2023-03-05T15:24:55;6.10;99.90
34574;DHT22;20809;49.594;8.734;2023-03-05T15:27:56;6.10;99.90
34574;DHT22;20809;49.594;8.734;2023-03-05T15:30:58;6.00;99.90
34574;DHT22;20809;49.594;8.734;2023-03-05T15:33:59;6.00;99.90
34574;DHT22;20809;49.594;8.734;2023-03-05T15:37:00;6.00;99.90
34574;DHT22;20809;49.594;8.734;2023-03-05T15:40:03;6.00;99.90
34574;DHT22;20809;49.594;8.734;2023-03-05T15:43:09;6.10;99.90
34574;DHT22;20809;49.594;8.734;2023-03-05T15:46:11;6.10;99.90
34574;DHT22;20809;49.594;8.734;2023-03-05T15:49:13;6.20;99.90
34574;DHT22;20809;49.594;8.734;2023-03-05T15:52:14;6.20;99.90
34574;DHT22;20809;49.594;8.734;2023-03-05T15:55:15;6.20;99.90
34574;DHT22;20809;49.594;8.734;2023-03-05T15:58:21;6.20;99.90
34574;DHT22;20809;49.594;8.734;2023-03-05T16:01:23;6.20;99.90
34574;DHT22;20809;49.594;8.734;2023-03-05T16:04:26;6.20;99.90
34574;DHT22;20809;49.594;8.734;2023-03-05T16:07:30;6.30;99.90
34574;DHT22;20809;49.594;8.734;2023-03-05T16:10:32;6.30;99.90
34574;DHT22;20809;49.594;8.734;2023-03-05T16:13:36;6.30;99.90
34574;DHT22;20809;49.594;8.734;2023-03-05T16:16:39;6.20;99.90
34574;DHT22;20809;49.594;8.734;2023-03-05T16:19:46;6.10;99.90
34574;DHT22;20809;49.594;8.734;2023-03-05T16:22:50;5.90;99.90
34574;DHT22;20809;49.594;8.734;2023-03-05T16:25:53;5.80;99.90
34574;DHT22;20809;49.594;8.734;2023-03-05T16:28:57;5.70;99.90
34574;DHT22;20809;49.594;8.734;2023-03-05T16:32:02;5.70;99.90
34574;DHT22;20809;49.594;8.734;2023-03-05T16:35:06;5.60;99.90
34574;DHT22;20809;49.594;8.734;2023-03-05T16:38:12;5.50;99.90
34574;DHT22;20809;49.594;8.734;2023-03-05T16:41:16;5.50;99.90
34574;DHT22;20809;49.594;8.734;2023-03-05T16:44:20;5.40;99.90
34574;DHT22;20809;49.594;8.734;2023-03-05T16:47:23;5.40;99.90
34574;DHT22;20809;49.594;8.734;2023-03-05T16:50:25;5.30;99.90
34574;DHT22;20809;49.594;8.734;2023-03-05T16:53:29;5.30;99.90
34574;DHT22;20809;49.594;8.734;2023-03-05T16:56:33;5.20;99.90
34574;DHT22;20809;49.594;8.734;2023-03-05T16:59:41;5.10;99.90
34574;DHT22;20809;49.594;8.734;2023-03-05T17:02:47;5.10;99.90
34574;DHT22;20809;49.594;8.734;2023-03-05T17:05:52;5.00;99.90
34574;DHT22;20809;49.594;8.734;2023-03-05T17:08:56;5.00;99.90
34574;DHT22;20809;49.594;8.734;2023-03-05T17:11:58;4.90;99.90
34574;DHT22;20809;49.594;8.734;2023-03-05T17:15:01;4.90;99.90
34574;DHT22;20809;49.594;8.734;2023-03-05T17:18:02;4.80;99.90
34574;DHT22;20809;49.594;8.734;2023-03-05T17:21:07;4.80;99.90
34574;DHT22;20809;49.594;8.734;2023-03-05T17:24:15;4.70;99.90
34574;DHT22;20809;49.594;8.734;2023-03-05T17:27:18;4.70;99.90
34574;DHT22;20809;49.594;8.734;2023-03-05T17:30:25;4.60;99.90
34574;DHT22;20809;49.594;8.734;2023-03-05T17:33:36;4.60;99.90
34574;DHT22;20809;49.594;8.734;2023-03-05T17:36:43;4.60;99.90
34574;DHT22;20809;49.594;8.734;2023-03-05T17:39:47;4.60;99.90
34574;DHT22;20809;49.594;8.734;2023-03-05T17:42:50;4.50;99.90
34574;DHT22;20809;49.594;8.734;2023-03-05T17:45:52;4.50;99.90
34574;DHT22;20809;49.594;8.734;2023-03-05T17:48:58;4.40;99.90
34574;DHT22;20809;49.594;8.734;2023-03-05T17:52:00;4.40;99.90
34574;DHT22;20809;49.594;8.734;2023-03-05T17:55:01;4.40;99.90
34574;DHT22;20809;49.594;8.734;2023-03-05T17:58:04;4.40;99.90
34574;DHT22;20809;49.594;8.734;2023-03-05T18:01:07;4.40;99.90
34574;DHT22;20809;49.594;8.734;2023-03-05T18:04:08;4.40;99.90
34574;DHT22;20809;49.594;8.734;2023-03-05T18:07:11;4.40;99.90
34574;DHT22;20809;49.594;8.734;2023-03-05T18:10:16;4.30;99.90
34574;DHT22;20809;49.594;8.734;2023-03-05T18:13:19;4.30;99.90
34574;DHT22;20809;49.594;8.734;2023-03-05T18:16:21;4.30;99.90
34574;DHT22;20809;49.594;8.734;2023-03-05T18:19:25;4.30;99.90
34574;DHT22;20809;49.594;8.734;2023-03-05T18:22:27;4.30;99.90
34574;DHT22;20809;49.594;8.734;2023-03-05T18:25:29;4.30;99.90
34574;DHT22;20809;49.594;8.734;2023-03-05T18:28:31;4.20;99.90
34574;DHT22;20809;49.594;8.734;2023-03-05T18:31:33;4.30;99.90
34574;DHT22;20809;49.594;8.734;2023-03-05T18:34:34;4.20;99.90
34574;DHT22;20809;49.594;8.734;2023-03-05T18:37:36;4.20;99.90
34574;DHT22;20809;49.594;8.734;2023-03-05T18:40:39;4.20;99.90
34574;DHT22;20809;49.594;8.734;2023-03-05T18:43:41;4.20;99.90
34574;DHT22;20809;49.594;8.734;2023-03-05T18:46:43;4.20;99.90
34574;DHT22;20809;49.594;8.734;2023-03-05T18:49:47;4.20;99.90
34574;DHT22;20809;49.594;8.734;2023-03-05T18:52:50;4.10;99.90
34574;DHT22;20809;49.594;8.734;2023-03-05T18:55:52;4.00;99.90
34574;DHT22;20809;49.594;8.734;2023-03-05T18:58:53;4.10;99.90
34574;DHT22;20809;49.594;8.734;2023-03-05T19:01:54;4.10;99.90
34574;DHT22;20809;49.594;8.734;2023-03-05T19:04:59;4.10;99.90
34574;DHT22;20809;49.594;8.734;2023-03-05T19:08:01;4.00;99.90
34574;DHT22;20809;49.594;8.734;2023-03-05T19:11:06;3.90;99.90
34574;DHT22;20809;49.594;8.734;2023-03-05T19:14:12;3.90;99.90
34574;DHT22;20809;49.594;8.734;2023-03-05T19:17:14;3.80;99.90
34574;DHT22;20809;49.594;8.734;2023-03-05T19:20:16;3.90;99.90
34574;DHT22;20809;49.594;8.734;2023-03-05T19:23:17;3.80;99.90
34574;DHT22;20809;49.594;8.734;2023-03-05T19:26:18;3.70;99.90
34574;DHT22;20809;49.594;8.734;2023-03-05T19:29:20;3.70;99.90
34574;DHT22;20809;49.594;8.734;2023-03-05T19:32:22;3.70;99.90
34574;DHT22;20809;49.594;8.734;2023-03-05T19:35:23;3.70;99.90
34574;DHT22;20809;49.594;8.734;2023-03-05T19:38:25;3.70;99.90
34574;DHT22;20809;49.594;8.734;2023-03-05T19:41:30;3.70;99.90
34574;DHT22;20809;49.594;8.734;2023-03-05T19:44:31;3.70;99.90
34574;DHT22;20809;49.594;8.734;2023-03-05T19:47:33;3.70;99.90
34574;DHT22;20809;49.594;8.734;2023-03-05T19:50:33;3.70;99.90
34574;DHT22;20809;49.594;8.734;2023-03-05T19:53:35;3.70;99.90
34574;DHT22;20809;49.594;8.734;2023-03-05T19:56:38;3.80;99.90
34574;DHT22;20809;49.594;8.734;2023-03-05T19:59:39;3.70;99.90
34574;DHT22;20809;49.594;8.734;2023-03-05T20:02:40;3.70;99.90
34574;DHT22;20809;49.594;8.734;2023-03-05T20:05:41;3.80;99.90
34574;DHT22;20809;49.594;8.734;2023-03-05T20:08:46;3.70;99.90
34574;DHT22;20809;49.594;8.734;2023-03-05T20:11:48;3.70;99.90
34574;DHT22;20809;49.594;8.734;2023-03-05T20:14:53;3.70;99.90
34574;DHT22;20809;49.594;8.734;2023-03-05T20:17:57;3.70;99.90
34574;DHT22;20809;49.594;8.734;2023-03-05T20:20:59;3.70;99.90
34574;DHT22;20809;49.594;8.734;2023-03-05T20:24:06;3.70;99.90
34574;DHT22;20809;49.594;8.734;2023-03-05T20:27:09;3.70;99.90
34574;DHT22;20809;49.594;8.734;2023-03-05T20:30:13;3.70;99.90
34574;DHT22;20809;49.594;8.734;2023-03-05T20:33:14;3.60;99.90
34574;DHT22;20809;49.594;8.734;2023-03-05T20:36:16;3.70;99.90
34574;DHT22;20809;49.594;8.734;2023-03-05T20:39:17;3.70;99.90